sensor_id;sensor_type;location;lat;lon;timestamp;pressure;altitude;pressure_sealevel;temperature;humidity
68822;BME280;55834;50.870;4.606;2022-12-18T00:01:33;102006.25;;;-4.79;51.03
68822;BME280;55834;50.870;4.606;2022-12-18T00:04:00;102012.00;;;-4.68;51.74
68822;BME280;55834;50.870;4.606;2022-12-18T00:06:27;102008.13;;;-4.60;51.53
68822;BME280;55834;50.870;4.606;2022-12-18T00:08:55;102016.97;;;-4.55;51.44
68822;BME280;55834;50.870;4.606;2022-12-18T00:11:23;102014.56;;;-4.52;51.46
68822;BME280;55834;50.870;4.606;2022-12-18T00:13:49;101996.63;;;-4.50;51.19
68822;BME280;55834;50.870;4.606;2022-12-18T00:16:17;102003.47;;;-4.50;50.57
68822;BME280;55834;50.870;4.606;2022-12-18T00:18:45;102007.50;;;-4.56;49.44
68822;BME280;55834;50.870;4.606;2022-12-18T00:21:12;102000.63;;;-4.55;50.38
68822;BME280;55834;50.870;4.606;2022-12-18T00:23:38;102006.94;;;-4.50;51.08
68822;BME280;55834;50.870;4.606;2022-12-18T00:26:15;102008.69;;;-4.49;51.49
68822;BME280;55834;50.870;4.606;2022-12-18T00:28:42;101997.41;;;-4.51;50.95
68822;BME280;55834;50.870;4.606;2022-12-18T00:31:10;101995.38;;;-4.57;50.07
68822;BME280;55834;50.870;4.606;2022-12-18T00:33:37;101995.31;;;-4.58;49.95
68822;BME280;55834;50.870;4.606;2022-12-18T00:36:10;101986.28;;;-4.66;49.58
68822;BME280;55834;50.870;4.606;2022-12-18T00:38:37;101994.19;;;-4.63;50.10
68822;BME280;55834;50.870;4.606;2022-12-18T00:41:03;101991.53;;;-4.65;49.76
68822;BME280;55834;50.870;4.606;2022-12-18T00:43:29;101977.69;;;-4.67;49.98
68822;BME280;55834;50.870;4.606;2022-12-18T00:45:54;101983.81;;;-4.65;50.58
68822;BME280;55834;50.870;4.606;2022-12-18T00:48:19;101974.44;;;-4.63;50.85
68822;BME280;55834;50.870;4.606;2022-12-18T00:50:45;101971.97;;;-4.61;50.70
68822;BME280;55834;50.870;4.606;2022-12-18T00:53:11;101970.75;;;-4.68;51.56
68822;BME280;55834;50.870;4.606;2022-12-18T00:55:39;101969.84;;;-4.68;51.55
68822;BME280;55834;50.870;4.606;2022-12-18T00:58:04;101973.56;;;-4.63;52.12
68822;BME280;55834;50.870;4.606;2022-12-18T01:00:29;101974.69;;;-4.58;52.06
68822;BME280;55834;50.870;4.606;2022-12-18T01:02:55;101973.00;;;-4.58;52.16
68822;BME280;55834;50.870;4.606;2022-12-18T01:05:20;101972.13;;;-4.58;51.69
68822;BME280;55834;50.870;4.606;2022-12-18T01:07:45;101972.13;;;-4.58;51.25
68822;BME280;55834;50.870;4.606;2022-12-18T01:10:12;101959.31;;;-4.57;50.81
68822;BME280;55834;50.870;4.606;2022-12-18T01:12:38;101965.38;;;-4.56;51.22
68822;BME280;55834;50.870;4.606;2022-12-18T01:15:05;101961.09;;;-4.56;51.43
68822;BME280;55834;50.870;4.606;2022-12-18T01:17:31;101961.88;;;-4.57;51.00
68822;BME280;55834;50.870;4.606;2022-12-18T01:19:56;101961.81;;;-4.58;51.22
68822;BME280;55834;50.870;4.606;2022-12-18T01:22:21;101961.00;;;-4.57;51.06
68822;BME280;55834;50.870;4.606;2022-12-18T01:24:47;101967.84;;;-4.58;51.72
68822;BME280;55834;50.870;4.606;2022-12-18T01:27:12;101967.84;;;-4.58;50.83
68822;BME280;55834;50.870;4.606;2022-12-18T01:29:38;101964.94;;;-4.64;50.66
68822;BME280;55834;50.870;4.606;2022-12-18T01:32:03;101970.66;;;-4.69;49.76
68822;BME280;55834;50.870;4.606;2022-12-18T01:34:29;101965.34;;;-4.72;49.86
68822;BME280;55834;50.870;4.606;2022-12-18T01:36:54;101968.38;;;-4.80;49.71
68822;BME280;55834;50.870;4.606;2022-12-18T01:39:19;101953.72;;;-4.81;49.18
68822;BME280;55834;50.870;4.606;2022-12-18T01:41:45;101948.53;;;-4.82;49.32
68822;BME280;55834;50.870;4.606;2022-12-18T01:47:42;101964.53;;;-4.88;49.96
68822;BME280;55834;50.870;4.606;2022-12-18T01:50:15;101957.69;;;-4.87;50.00
68822;BME280;55834;50.870;4.606;2022-12-18T01:52:43;101955.00;;;-4.89;50.20
68822;BME280;55834;50.870;4.606;2022-12-18T01:55:11;101950.25;;;-4.98;51.32
68822;BME280;55834;50.870;4.606;2022-12-18T01:57:38;101950.66;;;-4.90;51.94
68822;BME280;55834;50.870;4.606;2022-12-18T02:00:11;101958.66;;;-4.85;51.27
68822;BME280;55834;50.870;4.606;2022-12-18T02:02:37;101954.38;;;-4.85;51.05
68822;BME280;55834;50.870;4.606;2022-12-18T02:05:03;101969.03;;;-4.84;51.24
68822;BME280;55834;50.870;4.606;2022-12-18T02:07:42;101967.44;;;-4.82;50.79
68822;BME280;55834;50.870;4.606;2022-12-18T02:10:33;101971.53;;;-4.85;51.08
68822;BME280;55834;50.870;4.606;2022-12-18T02:15:44;101971.28;;;-4.90;50.82
68822;BME280;55834;50.870;4.606;2022-12-18T02:18:23;101970.22;;;-4.93;51.10
68822;BME280;55834;50.870;4.606;2022-12-18T02:21:09;101977.47;;;-4.86;51.81
68822;BME280;55834;50.870;4.606;2022-12-18T02:26:29;101961.69;;;-4.92;50.80
68822;BME280;55834;50.870;4.606;2022-12-18T02:29:03;101952.53;;;-4.87;51.69
68822;BME280;55834;50.870;4.606;2022-12-18T02:31:44;101942.44;;;-4.83;51.36
68822;BME280;55834;50.870;4.606;2022-12-18T02:34:11;101935.09;;;-5.08;50.61
68822;BME280;55834;50.870;4.606;2022-12-18T02:36:39;101933.91;;;-4.98;52.16
68822;BME280;55834;50.870;4.606;2022-12-18T02:39:08;101935.13;;;-4.91;51.72
68822;BME280;55834;50.870;4.606;2022-12-18T02:41:35;101932.81;;;-4.87;51.28
68822;BME280;55834;50.870;4.606;2022-12-18T02:44:07;101926.66;;;-4.89;50.47
68822;BME280;55834;50.870;4.606;2022-12-18T02:46:46;101927.16;;;-4.96;50.09
68822;BME280;55834;50.870;4.606;2022-12-18T02:52:05;101920.06;;;-5.00;50.20
68822;BME280;55834;50.870;4.606;2022-12-18T02:57:09;101936.41;;;-5.00;49.59
68822;BME280;55834;50.870;4.606;2022-12-18T03:00:09;101938.19;;;-4.99;49.86
68822;BME280;55834;50.870;4.606;2022-12-18T03:02:45;101939.72;;;-5.02;49.66
68822;BME280;55834;50.870;4.606;2022-12-18T03:08:18;101924.47;;;-5.14;49.29
68822;BME280;55834;50.870;4.606;2022-12-18T03:10:51;101929.63;;;-5.14;49.52
68822;BME280;55834;50.870;4.606;2022-12-18T03:13:24;101929.47;;;-5.17;48.76
68822;BME280;55834;50.870;4.606;2022-12-18T03:15:52;101933.56;;;-5.35;48.16
68822;BME280;55834;50.870;4.606;2022-12-18T03:18:39;101926.72;;;-5.35;48.69
68822;BME280;55834;50.870;4.606;2022-12-18T03:21:07;101918.22;;;-5.34;48.44
68822;BME280;55834;50.870;4.606;2022-12-18T03:23:40;101909.63;;;-5.34;49.29
68822;BME280;55834;50.870;4.606;2022-12-18T03:26:09;101906.25;;;-5.33;49.20
68822;BME280;55834;50.870;4.606;2022-12-18T03:28:39;101905.59;;;-5.29;50.33
68822;BME280;55834;50.870;4.606;2022-12-18T03:31:09;101898.84;;;-5.27;50.49
68822;BME280;55834;50.870;4.606;2022-12-18T03:33:42;101901.53;;;-5.26;50.33
68822;BME280;55834;50.870;4.606;2022-12-18T03:36:11;101909.25;;;-5.26;49.92
68822;BME280;55834;50.870;4.606;2022-12-18T03:38:36;101919.28;;;-5.30;49.06
68822;BME280;55834;50.870;4.606;2022-12-18T03:41:16;101913.97;;;-5.33;48.79
68822;BME280;55834;50.870;4.606;2022-12-18T03:43:58;101913.34;;;-5.44;47.90
68822;BME280;55834;50.870;4.606;2022-12-18T03:46:50;101917.19;;;-5.52;48.69
68822;BME280;55834;50.870;4.606;2022-12-18T03:49:34;101912.94;;;-5.52;48.36
68822;BME280;55834;50.870;4.606;2022-12-18T03:52:14;101915.16;;;-5.58;48.23
68822;BME280;55834;50.870;4.606;2022-12-18T03:54:44;101914.28;;;-5.58;48.40
68822;BME280;55834;50.870;4.606;2022-12-18T03:57:14;101895.31;;;-5.60;48.00
68822;BME280;55834;50.870;4.606;2022-12-18T03:59:43;101889.25;;;-5.61;47.86
68822;BME280;55834;50.870;4.606;2022-12-18T04:02:09;101892.53;;;-5.63;47.83
68822;BME280;55834;50.870;4.606;2022-12-18T04:04:39;101886.97;;;-5.71;48.10
68822;BME280;55834;50.870;4.606;2022-12-18T04:07:06;101887.06;;;-5.84;48.15
68822;BME280;55834;50.870;4.606;2022-12-18T04:09:33;101884.13;;;-5.76;50.14
68822;BME280;55834;50.870;4.606;2022-12-18T04:11:59;101894.75;;;-5.70;49.56
68822;BME280;55834;50.870;4.606;2022-12-18T04:14:24;101883.09;;;-5.79;49.44
68822;BME280;55834;50.870;4.606;2022-12-18T04:16:50;101889.38;;;-5.74;49.77
68822;BME280;55834;50.870;4.606;2022-12-18T04:19:15;101884.59;;;-5.83;48.65
68822;BME280;55834;50.870;4.606;2022-12-18T04:21:40;101883.09;;;-5.79;49.64
68822;BME280;55834;50.870;4.606;2022-12-18T04:24:06;101886.63;;;-5.77;49.74
68822;BME280;55834;50.870;4.606;2022-12-18T04:26:31;101895.56;;;-5.71;48.46
68822;BME280;55834;50.870;4.606;2022-12-18T04:28:57;101899.50;;;-5.92;47.90
68822;BME280;55834;50.870;4.606;2022-12-18T04:31:22;101908.72;;;-6.11;50.71
68822;BME280;55834;50.870;4.606;2022-12-18T04:33:47;101912.00;;;-5.98;50.34
68822;BME280;55834;50.870;4.606;2022-12-18T04:36:13;101901.53;;;-6.01;49.42
68822;BME280;55834;50.870;4.606;2022-12-18T04:38:38;101905.53;;;-5.92;49.55
68822;BME280;55834;50.870;4.606;2022-12-18T04:41:04;101907.75;;;-5.83;49.38
68822;BME280;55834;50.870;4.606;2022-12-18T04:43:29;101902.78;;;-5.80;49.11
68822;BME280;55834;50.870;4.606;2022-12-18T04:46:04;101917.06;;;-5.85;47.21
68822;BME280;55834;50.870;4.606;2022-12-18T04:48:29;101916.97;;;-6.01;47.07
68822;BME280;55834;50.870;4.606;2022-12-18T04:50:55;101921.41;;;-5.99;47.93
68822;BME280;55834;50.870;4.606;2022-12-18T04:53:20;101918.66;;;-6.02;47.63
68822;BME280;55834;50.870;4.606;2022-12-18T04:55:45;101921.41;;;-5.99;48.17
68822;BME280;55834;50.870;4.606;2022-12-18T04:58:11;101924.06;;;-5.97;48.09
68822;BME280;55834;50.870;4.606;2022-12-18T05:00:36;101916.44;;;-5.96;47.55
68822;BME280;55834;50.870;4.606;2022-12-18T05:03:02;101911.47;;;-5.93;47.18
68822;BME280;55834;50.870;4.606;2022-12-18T05:05:27;101908.66;;;-5.97;46.91
68822;BME280;55834;50.870;4.606;2022-12-18T05:07:52;101909.53;;;-5.97;47.44
68822;BME280;55834;50.870;4.606;2022-12-18T05:10:18;101909.97;;;-6.04;46.75
68822;BME280;55834;50.870;4.606;2022-12-18T05:12:43;101912.09;;;-6.12;47.64
68822;BME280;55834;50.870;4.606;2022-12-18T05:15:26;101906.94;;;-6.12;47.35
68822;BME280;55834;50.870;4.606;2022-12-18T05:17:51;101903.50;;;-6.12;47.63
68822;BME280;55834;50.870;4.606;2022-12-18T05:20:17;101904.22;;;-6.15;47.40
68822;BME280;55834;50.870;4.606;2022-12-18T05:22:43;101909.25;;;-6.16;47.37
68822;BME280;55834;50.870;4.606;2022-12-18T05:25:08;101892.22;;;-6.14;47.46
68822;BME280;55834;50.870;4.606;2022-12-18T05:27:34;101893.28;;;-6.25;46.96
68822;BME280;55834;50.870;4.606;2022-12-18T05:29:59;101883.75;;;-6.56;46.53
68822;BME280;55834;50.870;4.606;2022-12-18T05:32:24;101893.63;;;-6.49;48.36
68822;BME280;55834;50.870;4.606;2022-12-18T05:34:50;101891.06;;;-6.49;49.11
68822;BME280;55834;50.870;4.606;2022-12-18T05:37:15;101896.84;;;-6.38;48.74
68822;BME280;55834;50.870;4.606;2022-12-18T05:39:40;101898.25;;;-6.28;49.48
68822;BME280;55834;50.870;4.606;2022-12-18T05:42:06;101890.91;;;-6.22;47.89
68822;BME280;55834;50.870;4.606;2022-12-18T05:44:31;101886.97;;;-6.30;46.80
68822;BME280;55834;50.870;4.606;2022-12-18T05:46:56;101895.16;;;-6.38;46.72
68822;BME280;55834;50.870;4.606;2022-12-18T05:49:21;101892.97;;;-6.60;47.70
68822;BME280;55834;50.870;4.606;2022-12-18T05:51:47;101887.25;;;-6.84;47.74
68822;BME280;55834;50.870;4.606;2022-12-18T05:54:12;101887.81;;;-6.74;48.17
68822;BME280;55834;50.870;4.606;2022-12-18T05:56:37;101896.13;;;-6.78;48.80
68822;BME280;55834;50.870;4.606;2022-12-18T05:59:03;101900.56;;;-6.76;48.91
68822;BME280;55834;50.870;4.606;2022-12-18T06:01:28;101895.13;;;-7.09;48.42
68822;BME280;55834;50.870;4.606;2022-12-18T06:03:55;101895.75;;;-6.85;49.75
68822;BME280;55834;50.870;4.606;2022-12-18T06:06:23;101893.56;;;-6.78;48.48
68822;BME280;55834;50.870;4.606;2022-12-18T06:08:49;101893.03;;;-6.73;48.43
68822;BME280;55834;50.870;4.606;2022-12-18T06:11:23;101904.72;;;-6.78;47.66
68822;BME280;55834;50.870;4.606;2022-12-18T06:13:53;101904.34;;;-6.84;48.45
68822;BME280;55834;50.870;4.606;2022-12-18T06:16:19;101899.66;;;-6.76;49.02
68822;BME280;55834;50.870;4.606;2022-12-18T06:18:45;101891.72;;;-6.66;48.78
68822;BME280;55834;50.870;4.606;2022-12-18T06:21:11;101884.91;;;-6.66;48.54
68822;BME280;55834;50.870;4.606;2022-12-18T06:23:36;101888.91;;;-6.56;48.75
68822;BME280;55834;50.870;4.606;2022-12-18T06:26:06;101883.38;;;-6.62;47.67
68822;BME280;55834;50.870;4.606;2022-12-18T06:28:31;101873.94;;;-6.63;48.33
68822;BME280;55834;50.870;4.606;2022-12-18T06:30:56;101871.34;;;-6.63;48.03
68822;BME280;55834;50.870;4.606;2022-12-18T06:33:28;101872.38;;;-6.74;47.31
68822;BME280;55834;50.870;4.606;2022-12-18T06:35:54;101882.28;;;-6.81;48.14
68822;BME280;55834;50.870;4.606;2022-12-18T06:38:19;101877.00;;;-6.69;48.50
68822;BME280;55834;50.870;4.606;2022-12-18T06:40:45;101885.06;;;-6.63;47.92
68822;BME280;55834;50.870;4.606;2022-12-18T06:43:10;101882.63;;;-6.61;47.88
68822;BME280;55834;50.870;4.606;2022-12-18T06:45:35;101876.66;;;-6.60;48.15
68822;BME280;55834;50.870;4.606;2022-12-18T06:48:01;101862.31;;;-6.57;48.31
68822;BME280;55834;50.870;4.606;2022-12-18T06:50:26;101862.69;;;-6.50;48.41
68822;BME280;55834;50.870;4.606;2022-12-18T06:52:52;101863.31;;;-6.54;47.90
68822;BME280;55834;50.870;4.606;2022-12-18T06:55:17;101862.69;;;-6.50;48.14
68822;BME280;55834;50.870;4.606;2022-12-18T06:57:43;101867.28;;;-6.45;48.55
68822;BME280;55834;50.870;4.606;2022-12-18T07:00:08;101865.72;;;-6.43;48.48
68822;BME280;55834;50.870;4.606;2022-12-18T07:02:34;101862.50;;;-6.39;48.34
68822;BME280;55834;50.870;4.606;2022-12-18T07:05:00;101844.44;;;-6.40;47.66
68822;BME280;55834;50.870;4.606;2022-12-18T07:07:26;101842.69;;;-6.41;47.41
68822;BME280;55834;50.870;4.606;2022-12-18T07:09:51;101839.13;;;-6.43;48.18
68822;BME280;55834;50.870;4.606;2022-12-18T07:12:17;101833.72;;;-6.48;47.71
68822;BME280;55834;50.870;4.606;2022-12-18T07:14:43;101830.09;;;-6.51;48.35
68822;BME280;55834;50.870;4.606;2022-12-18T07:17:09;101827.63;;;-6.50;49.00
68822;BME280;55834;50.870;4.606;2022-12-18T07:19:34;101818.47;;;-6.45;48.69
68822;BME280;55834;50.870;4.606;2022-12-18T07:22:00;101804.91;;;-6.42;49.37
68822;BME280;55834;50.870;4.606;2022-12-18T07:24:25;101803.63;;;-6.36;49.02
68822;BME280;55834;50.870;4.606;2022-12-18T07:26:51;101808.94;;;-6.32;49.20
68822;BME280;55834;50.870;4.606;2022-12-18T07:29:16;101812.81;;;-6.39;48.81
68822;BME280;55834;50.870;4.606;2022-12-18T07:31:41;101821.78;;;-6.32;49.22
68822;BME280;55834;50.870;4.606;2022-12-18T07:34:11;101816.72;;;-6.31;50.31
68822;BME280;55834;50.870;4.606;2022-12-18T07:36:37;101811.66;;;-6.29;49.32
68822;BME280;55834;50.870;4.606;2022-12-18T07:39:02;101798.19;;;-6.25;50.46
68822;BME280;55834;50.870;4.606;2022-12-18T07:41:27;101793.31;;;-6.21;49.65
68822;BME280;55834;50.870;4.606;2022-12-18T07:43:53;101792.63;;;-6.18;48.96
68822;BME280;55834;50.870;4.606;2022-12-18T07:46:18;101786.50;;;-6.20;48.84
68822;BME280;55834;50.870;4.606;2022-12-18T07:48:44;101789.94;;;-6.20;48.73
68822;BME280;55834;50.870;4.606;2022-12-18T07:51:10;101786.22;;;-6.25;48.70
68822;BME280;55834;50.870;4.606;2022-12-18T07:53:36;101785.50;;;-6.22;49.12
68822;BME280;55834;50.870;4.606;2022-12-18T07:56:05;101769.31;;;-6.21;50.32
68822;BME280;55834;50.870;4.606;2022-12-18T07:58:32;101774.16;;;-6.11;50.81
68822;BME280;55834;50.870;4.606;2022-12-18T08:01:08;101770.31;;;-6.03;50.65
68822;BME280;55834;50.870;4.606;2022-12-18T08:03:35;101761.63;;;-6.05;51.98
68822;BME280;55834;50.870;4.606;2022-12-18T08:06:01;101772.59;;;-5.93;52.04
68822;BME280;55834;50.870;4.606;2022-12-18T08:08:27;101772.16;;;-5.85;51.80
68822;BME280;55834;50.870;4.606;2022-12-18T08:10:52;101777.63;;;-5.79;51.68
68822;BME280;55834;50.870;4.606;2022-12-18T08:13:17;101771.94;;;-5.74;51.68
68822;BME280;55834;50.870;4.606;2022-12-18T08:15:43;101789.72;;;-5.62;51.73
68822;BME280;55834;50.870;4.606;2022-12-18T08:18:08;101791.81;;;-5.55;51.23
68822;BME280;55834;50.870;4.606;2022-12-18T08:20:33;101788.50;;;-5.52;51.06
68822;BME280;55834;50.870;4.606;2022-12-18T08:22:59;101786.53;;;-5.41;51.12
68822;BME280;55834;50.870;4.606;2022-12-18T08:25:24;101782.53;;;-5.36;51.04
68822;BME280;55834;50.870;4.606;2022-12-18T08:27:50;101776.88;;;-5.29;50.82
68822;BME280;55834;50.870;4.606;2022-12-18T08:30:15;101766.91;;;-5.23;51.63
68822;BME280;55834;50.870;4.606;2022-12-18T08:32:40;101766.59;;;-5.13;51.15
68822;BME280;55834;50.870;4.606;2022-12-18T08:35:06;101759.34;;;-5.04;51.10
68822;BME280;55834;50.870;4.606;2022-12-18T08:37:33;101755.06;;;-5.03;51.30
68822;BME280;55834;50.870;4.606;2022-12-18T08:39:58;101748.88;;;-4.90;51.15
68822;BME280;55834;50.870;4.606;2022-12-18T08:42:24;101753.59;;;-4.82;51.14
68822;BME280;55834;50.870;4.606;2022-12-18T08:45:08;101752.06;;;-4.78;51.45
68822;BME280;55834;50.870;4.606;2022-12-18T08:47:33;101753.81;;;-4.77;51.49
68822;BME280;55834;50.870;4.606;2022-12-18T08:49:59;101751.63;;;-4.69;51.52
68822;BME280;55834;50.870;4.606;2022-12-18T08:52:24;101741.63;;;-4.63;51.67
68822;BME280;55834;50.870;4.606;2022-12-18T08:54:49;101737.59;;;-4.58;51.48
68822;BME280;55834;50.870;4.606;2022-12-18T08:57:15;101736.28;;;-4.50;51.68
68822;BME280;55834;50.870;4.606;2022-12-18T08:59:41;101747.75;;;-4.43;51.64
68822;BME280;55834;50.870;4.606;2022-12-18T09:02:09;101748.66;;;-4.43;51.58
68822;BME280;55834;50.870;4.606;2022-12-18T09:04:34;101741.28;;;-4.53;52.05
68822;BME280;55834;50.870;4.606;2022-12-18T09:07:00;101741.91;;;-4.75;52.67
68822;BME280;55834;50.870;4.606;2022-12-18T09:09:25;101730.56;;;-4.79;53.21
68822;BME280;55834;50.870;4.606;2022-12-18T09:11:50;101736.16;;;-4.69;54.11
68822;BME280;55834;50.870;4.606;2022-12-18T09:14:16;101731.75;;;-4.54;53.96
68822;BME280;55834;50.870;4.606;2022-12-18T09:16:41;101728.16;;;-4.40;53.72
68822;BME280;55834;50.870;4.606;2022-12-18T09:19:07;101727.44;;;-4.37;53.54
68822;BME280;55834;50.870;4.606;2022-12-18T09:21:34;101722.06;;;-4.24;53.52
68822;BME280;55834;50.870;4.606;2022-12-18T09:24:00;101735.03;;;-4.22;53.30
68822;BME280;55834;50.870;4.606;2022-12-18T09:26:26;101726.63;;;-4.18;53.39
68822;BME280;55834;50.870;4.606;2022-12-18T09:28:52;101726.03;;;-4.31;53.71
68822;BME280;55834;50.870;4.606;2022-12-18T09:31:19;101729.66;;;-4.27;53.85
68822;BME280;55834;50.870;4.606;2022-12-18T09:33:45;101729.44;;;-4.32;53.84
68822;BME280;55834;50.870;4.606;2022-12-18T09:36:13;101720.81;;;-4.14;54.28
68822;BME280;55834;50.870;4.606;2022-12-18T09:38:39;101711.97;;;-4.01;54.34
68822;BME280;55834;50.870;4.606;2022-12-18T09:41:17;101710.59;;;-3.93;53.98
68822;BME280;55834;50.870;4.606;2022-12-18T09:43:53;101709.94;;;-3.89;53.88
68822;BME280;55834;50.870;4.606;2022-12-18T09:46:28;101706.31;;;-3.75;53.84
68822;BME280;55834;50.870;4.606;2022-12-18T09:48:59;101700.59;;;-3.68;54.08
68822;BME280;55834;50.870;4.606;2022-12-18T09:51:55;101702.34;;;-3.86;54.99
68822;BME280;55834;50.870;4.606;2022-12-18T09:54:26;101704.06;;;-3.67;54.93
68822;BME280;55834;50.870;4.606;2022-12-18T09:56:55;101710.31;;;-3.62;54.56
68822;BME280;55834;50.870;4.606;2022-12-18T09:59:25;101714.72;;;-3.59;54.25
68822;BME280;55834;50.870;4.606;2022-12-18T10:01:51;101713.44;;;-3.50;54.67
68822;BME280;55834;50.870;4.606;2022-12-18T10:04:17;101721.66;;;-3.39;54.22
68822;BME280;55834;50.870;4.606;2022-12-18T10:06:55;101715.91;;;-3.33;54.39
68822;BME280;55834;50.870;4.606;2022-12-18T10:09:34;101713.22;;;-3.35;54.22
68822;BME280;55834;50.870;4.606;2022-12-18T10:12:09;101704.22;;;-3.25;54.32
68822;BME280;55834;50.870;4.606;2022-12-18T10:17:20;101677.75;;;-3.20;53.77
68822;BME280;55834;50.870;4.606;2022-12-18T10:19:52;101670.47;;;-3.09;53.84
68822;BME280;55834;50.870;4.606;2022-12-18T10:27:30;101657.75;;;-2.83;54.07
68822;BME280;55834;50.870;4.606;2022-12-18T10:29:56;101652.81;;;-2.77;53.71
68822;BME280;55834;50.870;4.606;2022-12-18T10:32:25;101641.84;;;-2.72;53.77
68822;BME280;55834;50.870;4.606;2022-12-18T10:34:55;101643.38;;;-2.77;53.37
68822;BME280;55834;50.870;4.606;2022-12-18T10:37:26;101638.50;;;-2.69;53.68
68822;BME280;55834;50.870;4.606;2022-12-18T10:42:34;101637.53;;;-2.94;53.37
68822;BME280;55834;50.870;4.606;2022-12-18T10:45:12;101631.50;;;-2.72;54.43
68822;BME280;55834;50.870;4.606;2022-12-18T10:47:48;101631.25;;;-2.78;53.94
68822;BME280;55834;50.870;4.606;2022-12-18T10:52:57;101616.91;;;-2.92;55.53
68822;BME280;55834;50.870;4.606;2022-12-18T10:55:25;101619.50;;;-2.71;55.07
68822;BME280;55834;50.870;4.606;2022-12-18T10:57:52;101613.09;;;-2.58;54.53
68822;BME280;55834;50.870;4.606;2022-12-18T11:00:29;101621.09;;;-2.52;54.36
68822;BME280;55834;50.870;4.606;2022-12-18T11:02:56;101616.00;;;-2.51;54.95
68822;BME280;55834;50.870;4.606;2022-12-18T11:05:27;101627.78;;;-2.35;54.99
68822;BME280;55834;50.870;4.606;2022-12-18T11:07:54;101618.28;;;-2.36;55.15
68822;BME280;55834;50.870;4.606;2022-12-18T11:10:22;101622.16;;;-2.24;54.74
68822;BME280;55834;50.870;4.606;2022-12-18T11:12:48;101617.44;;;-2.12;54.77
68822;BME280;55834;50.870;4.606;2022-12-18T11:15:29;101615.28;;;-2.01;54.98
68822;BME280;55834;50.870;4.606;2022-12-18T11:17:55;101625.56;;;-2.03;55.09
68822;BME280;55834;50.870;4.606;2022-12-18T11:20:31;101618.13;;;-1.94;54.66
68822;BME280;55834;50.870;4.606;2022-12-18T11:23:05;101621.94;;;-1.84;54.85
68822;BME280;55834;50.870;4.606;2022-12-18T11:25:36;101636.94;;;-1.75;54.89
68822;BME280;55834;50.870;4.606;2022-12-18T11:28:03;101627.50;;;-1.73;54.21
68822;BME280;55834;50.870;4.606;2022-12-18T11:30:30;101626.72;;;-1.71;55.01
68822;BME280;55834;50.870;4.606;2022-12-18T11:37:54;101602.41;;;-1.50;54.37
68822;BME280;55834;50.870;4.606;2022-12-18T11:40:43;101590.53;;;-1.45;53.77
68822;BME280;55834;50.870;4.606;2022-12-18T11:43:16;101605.31;;;-1.41;54.56
68822;BME280;55834;50.870;4.606;2022-12-18T11:45:52;101614.97;;;-1.37;54.97
68822;BME280;55834;50.870;4.606;2022-12-18T11:50:55;101615.09;;;-1.34;53.80
68822;BME280;55834;50.870;4.606;2022-12-18T11:53:21;101615.97;;;-1.33;54.15
68822;BME280;55834;50.870;4.606;2022-12-18T12:01:21;101599.53;;;-1.34;53.92
68822;BME280;55834;50.870;4.606;2022-12-18T12:04:15;101607.53;;;-1.28;54.05
68822;BME280;55834;50.870;4.606;2022-12-18T12:07:07;101601.41;;;-1.30;54.42
68822;BME280;55834;50.870;4.606;2022-12-18T12:13:01;101598.25;;;-1.47;54.99
68822;BME280;55834;50.870;4.606;2022-12-18T12:18:41;101574.81;;;-1.24;55.28
68822;BME280;55834;50.870;4.606;2022-12-18T12:21:14;101575.13;;;-1.15;55.29
68822;BME280;55834;50.870;4.606;2022-12-18T12:26:35;101566.81;;;-1.05;55.49
68822;BME280;55834;50.870;4.606;2022-12-18T12:29:21;101568.50;;;-1.32;54.27
68822;BME280;55834;50.870;4.606;2022-12-18T12:37:34;101553.69;;;-1.09;54.55
68822;BME280;55834;50.870;4.606;2022-12-18T12:40:04;101549.44;;;-1.09;55.40
68822;BME280;55834;50.870;4.606;2022-12-18T12:42:38;101567.50;;;-1.10;54.95
68822;BME280;55834;50.870;4.606;2022-12-18T12:45:50;101552.34;;;-0.98;55.52
68822;BME280;55834;50.870;4.606;2022-12-18T12:48:33;101538.69;;;-0.93;55.04
68822;BME280;55834;50.870;4.606;2022-12-18T12:51:03;101540.47;;;-0.92;54.47
68822;BME280;55834;50.870;4.606;2022-12-18T12:53:35;101532.69;;;-0.92;54.99
68822;BME280;55834;50.870;4.606;2022-12-18T12:56:01;101537.13;;;-0.87;55.58
68822;BME280;55834;50.870;4.606;2022-12-18T13:01:52;101534.34;;;-0.94;55.72
68822;BME280;55834;50.870;4.606;2022-12-18T13:04:36;101531.00;;;-0.90;54.24
68822;BME280;55834;50.870;4.606;2022-12-18T13:20:38;101519.25;;;-0.50;53.82
68822;BME280;55834;50.870;4.606;2022-12-18T13:25:45;101524.22;;;-0.57;54.11
68822;BME280;55834;50.870;4.606;2022-12-18T13:28:13;101519.34;;;-0.47;54.02
68822;BME280;55834;50.870;4.606;2022-12-18T13:30:42;101522.19;;;-0.39;53.34
68822;BME280;55834;50.870;4.606;2022-12-18T13:38:37;101499.00;;;-0.33;53.12
68822;BME280;55834;50.870;4.606;2022-12-18T13:41:22;101504.56;;;-0.49;53.38
68822;BME280;55834;50.870;4.606;2022-12-18T13:43:50;101498.50;;;-0.51;53.01
68822;BME280;55834;50.870;4.606;2022-12-18T13:46:30;101502.16;;;-0.43;53.44
68822;BME280;55834;50.870;4.606;2022-12-18T13:51:47;101488.47;;;-0.39;52.46
68822;BME280;55834;50.870;4.606;2022-12-18T13:54:28;101485.97;;;-0.34;53.41
68822;BME280;55834;50.870;4.606;2022-12-18T13:56:56;101483.53;;;-0.30;52.65
68822;BME280;55834;50.870;4.606;2022-12-18T14:04:29;101495.03;;;-0.80;52.94
68822;BME280;55834;50.870;4.606;2022-12-18T14:06:58;101493.66;;;-0.68;53.43
68822;BME280;55834;50.870;4.606;2022-12-18T14:09:31;101509.19;;;-0.98;54.04
68822;BME280;55834;50.870;4.606;2022-12-18T14:11:59;101513.53;;;-0.97;54.95
68822;BME280;55834;50.870;4.606;2022-12-18T14:14:45;101514.66;;;-0.88;53.98
68822;BME280;55834;50.870;4.606;2022-12-18T14:17:13;101512.69;;;-0.96;53.67
68822;BME280;55834;50.870;4.606;2022-12-18T14:19:44;101509.75;;;-0.79;53.46
68822;BME280;55834;50.870;4.606;2022-12-18T14:22:17;101510.63;;;-0.79;53.44
68822;BME280;55834;50.870;4.606;2022-12-18T14:24:43;101510.38;;;-0.86;53.56
68822;BME280;55834;50.870;4.606;2022-12-18T14:27:26;101509.38;;;-0.63;52.91
68822;BME280;55834;50.870;4.606;2022-12-18T14:29:52;101510.75;;;-0.46;52.80
68822;BME280;55834;50.870;4.606;2022-12-18T14:32:19;101500.63;;;-0.36;52.05